Airfield :
LOGIN :

Register | Disclaimer

   EN    FR    IT 

 










Legend :    VFR   Marginal VFR   IFR   Intensive IFR   Very Intensive IFR
Visi :
Ceiling :
>= 8 km
>= 3000ft
5 to 8 km
1000 to 3000 ft
1500m to 5 km
500 to 1000 ft
800 to 1500m
200 to 500 ft
< 800m
< 200 ft
Symbols :   Thunderstorms  Fog  Heavy snow  Heavy precipitations  Wind > 20 kt
SIGMETs :     Misc.  Thunderstorms  Icing  Turbulence  Mountain Waves  Volcanic Ashes







- Airport Elevation : 74 ft
- IATA code : NDZ


ETMN - Cuxhaven Nordholz Sea AB

CURRENT METAR :
  • 212344Z 22008KT 4500 BR BKN001 M00/M01 Q1015 RED

EXPIRED METARs :
  • 212320Z 22007KT 5000 BR BKN003 M00/M01 Q1015 YLO
  • 212246Z 22008KT 2800 BR BKN004 M01/M02 Q1015 YLO FCST CANCEL
  • 212220Z 22007KT 4000 BR SCT003 SCT047 BKN340 M01/M02 Q1016 GRN GRN TEMPO AMB
  • 212120Z 22007KT 5000 BR FEW003 SCT340 M02/M03 Q1016 WHT WHT TEMPO AMB

TAF AMD TAF ETMN
Valid from the 21 at 21:00 until the 22 at 06:00 UTC


212244Z 2121/2206 22006KT 5000 BR SCT004 BKN008
TEMPO 2121/2204 21008KT 4000 BR BKN002
PROB30 2121/2124 23015KT 3500 -SHSNRA SCT003 BKN010TCU
PROB30 2200/2204 21005KT 0300 FZFG VV001 CANCEL 2300
No reported NOTAMs for that airfield.



MET'MAP, your aeronautical weather chart ! - Copyright ORBIFLY December 2007 - Disclaimer

ORBIFLY MET'MAP TEAM :

Programming & Development : Alexandra Zaïnal
Concept & Development : Baudouin d'Aumeries
Co-Development & Prog : Marc-Olivier Méhu
Technical & hardware support : Manuel Goepfert

Contact : metmap@orbifly.com




SOURCES & CREDITS :

   NOAA